Latest Weather Observations for Territory Grape Farm

IDD60801

Issued at 9:01 pm CST Friday 3 July 2015 (issued every 30 minutes, with the page automatically refreshed every 10 minutes)

About weather observations | Map of weather stations | Latest weather observations for NT | Other Formats
Station Details ID: 015643 Name: TERRITORY GRAPE FARM Lat: -22.45 Lon: 133.64 Height: 565.6 m
Data from the previous 72 hours. | See also: Recent months at Territory Grape Farm
Date/Time
CST
Temp
°C
App
Temp
°C
Dew
Point
Rel
Hum
%
Delta-T
°C
Wind Press
QNH
hPa
Press
MSL
hPa
Rain
since 9 am
mm
Dir
 
Spd
km/h
Gust
km/h
Spd
kts
Gust
kts
03/09:00pm 9.2 4.4 -6.2 33 5.5 - 11 13 6 7 1022.0 1021.2 0.0
03/08:30pm 10.4 5.6 -6.4 30 6.0 - 11 11 6 6 1021.5 1020.8 -
03/08:00pm 11.1 - -6.2 29 6.3 - - - - - 1021.3 - -
03/07:30pm 12.4 8.0 -6.0 27 6.8 - 9 9 5 5 1021.1 1020.3 -
03/07:00pm 13.2 - -6.4 25 7.3 - - - - - 1020.9 - -
03/06:30pm 14.7 10.5 -7.4 21 8.2 - 7 7 4 4 1020.8 1020.0 -
03/06:00pm 17.5 13.0 -7.0 18 9.4 - 9 9 5 5 1020.6 1019.8 -
03/05:30pm 19.6 - -6.1 17 10.3 - - - - - 1020.5 1019.7 -
03/05:00pm 20.2 - -6.4 16 10.7 - - - - - 1020.5 - -
03/04:30pm 20.4 - -6.2 16 10.7 - - - - - 1020.5 1019.7 -
03/04:00pm 20.2 - -6.4 16 10.7 - - - - - 1020.6 - -
03/03:30pm 20.4 - -4.7 18 10.4 - - - - - 1020.7 1019.9 -
03/03:00pm 19.9 - -4.4 19 10.1 - - - - - 1020.9 1020.1 0.0
03/02:30pm 19.3 - -2.3 23 9.3 - - - - - 1021.2 1020.4 -
03/02:00pm 18.9 - -2.1 24 9.1 - - - - - 1021.5 - -
03/01:30pm 18.5 - -1.3 26 8.6 - - - - - 1022.0 1021.2 -
03/01:00pm 18.0 - -0.3 29 8.1 - - - - - 1022.6 - -
03/12:30pm 16.6 - -0.1 32 7.3 - - - - - 1023.3 1022.6 -
03/12:00pm 16.1 - 0.3 34 7.0 - - - - - 1024.1 1023.3 -
03/11:30am 15.6 - 0.2 35 6.8 - - - - - 1024.7 1024.0 -
03/11:00am 14.7 - 0.2 37 6.3 - - - - - 1025.2 - -
03/10:30am 13.4 - 0.1 40 5.7 - - - - - 1025.7 1024.9 -
03/10:00am 12.8 - 0.5 43 5.3 - - - - - 1025.8 - -
03/09:30am 11.5 - 0.6 47 4.6 - - - - - 1026.0 1025.3 -
03/09:00am 9.7 5.3 0.3 52 3.9 - 13 19 7 10 1025.8 1025.0 0.0
03/08:30am 7.3 3.1 -0.6 57 3.1 - 11 13 6 7 1025.8 1025.0 -
03/08:00am 5.0 0.7 -1.9 61 2.6 - 11 11 6 6 1025.8 - -
03/07:30am 3.9 - -2.1 65 2.2 - - - - - 1025.5 1024.8 -
03/07:00am 2.1 -1.6 -2.6 71 1.7 - 7 9 4 5 1025.1 - -
03/06:30am 1.3 - -4.3 66 2.0 - - - - - 1024.8 1024.1 -
03/06:00am 1.2 -2.5 -5.0 63 2.1 - 6 6 3 3 1024.5 1023.8 -
03/05:30am 2.7 - -3.8 62 2.3 - - - - - 1024.4 1023.7 -
03/05:00am 2.0 - -4.5 62 2.3 - - - - - 1024.3 - -
03/04:30am 1.6 -2.2 -5.8 58 2.5 - 6 6 3 3 1024.4 1023.7 -
03/04:00am 2.3 - -5.1 58 2.6 - - - - - 1024.4 - -
03/03:30am 3.5 - -4.7 55 2.8 - - - - - 1024.2 1023.4 -
03/03:00am 5.2 - -3.8 52 3.2 - - - - - 1024.3 1023.5 0.0
03/02:30am 5.8 - -4.1 49 3.5 - - - - - 1024.6 1023.9 -
03/02:00am 6.3 - -4.2 47 3.8 - - - - - 1024.7 - -
03/01:30am 6.8 - -4.0 46 3.9 - - - - - 1024.9 1024.2 -
03/01:00am 5.5 - -4.9 47 3.7 - - - - - 1025.0 - -
03/12:30am 6.6 - -5.1 43 4.1 - - - - - 1025.1 1024.4 -
03/12:00am 7.1 3.1 -5.9 39 4.5 - 7 7 4 4 1025.2 1024.5 -
 
Date/Time
CST
Temp
°C
App
Temp
°C
Dew
Point
Rel
Hum
%
Delta-T
°C
Wind Press
QNH
hPa
Press
MSL
hPa
Rain
since 9 am
mm
Dir
 
Spd
km/h
Gust
km/h
Spd
kts
Gust
kts
02/11:30pm 8.3 - -6.2 35 5.1 - - - - - 1025.3 1024.6 -
02/11:00pm 10.3 - -5.6 32 5.8 - - - - - 1025.3 - -
02/10:30pm 11.0 - -5.5 31 6.1 - - - - - 1025.2 1024.5 -
02/10:00pm 11.9 - -4.2 32 6.2 - - - - - 1025.1 - -
02/09:30pm 12.0 - -2.2 37 5.7 - - - - - 1025.1 1024.4 -
02/09:00pm 12.7 - -1.2 38 5.8 - - - - - 1025.0 1024.3 0.0
02/08:30pm 13.8 - -1.0 36 6.2 - - - - - 1024.8 1024.1 -
02/08:00pm 15.4 - -0.4 34 6.9 - - - - - 1024.5 - -
02/07:30pm 15.4 - -0.8 33 6.9 - - - - - 1024.2 1023.4 -
02/07:00pm 15.5 - -2.4 29 7.5 - - - - - 1023.8 - -
02/06:30pm 17.1 - -2.5 26 8.2 - - - - - 1023.3 1022.6 -
02/06:00pm 19.1 - -1.9 24 9.1 - - - - - 1023.1 1022.4 -
02/05:30pm 20.5 - -1.3 23 9.7 - - - - - 1022.8 1022.0 -
02/05:00pm 21.1 - -0.8 23 9.9 - - - - - 1022.7 - -
02/04:30pm 21.5 - -0.5 23 10.0 - - - - - 1022.8 1022.0 -
02/04:00pm 21.8 - 0.4 24 10.0 - - - - - 1023.0 - -
02/03:30pm 21.2 - 0.4 25 9.6 - - - - - 1023.1 1022.4 -
02/03:00pm 20.9 - 0.7 26 9.4 - - - - - 1023.5 1022.8 0.0
02/02:30pm 21.0 - 1.3 27 9.2 - - - - - 1023.9 1023.1 -
02/02:00pm 20.8 - 2.1 29 8.9 - - - - - 1024.2 - -
02/01:30pm 19.9 - 2.3 31 8.3 - - - - - 1024.6 1023.9 -
02/01:00pm 19.2 - 3.0 34 7.8 - - - - - 1025.3 - -
02/12:30pm 19.1 - 2.9 34 7.7 - - - - - 1026.1 1025.4 -
02/12:00pm 18.2 - 4.4 40 6.7 - - - - - 1026.7 1026.0 -
02/11:30am 18.0 - 4.9 42 6.4 - - - - - 1027.2 1026.5 -
02/11:00am 16.8 - 6.0 49 5.4 - - - - - 1027.7 - -
02/10:30am 16.0 - 6.2 52 4.9 - - - - - 1028.0 1027.3 -
02/10:00am 15.3 - 6.6 56 4.4 - - - - - 1028.0 - -
02/09:30am 13.5 - 6.1 61 3.6 - - - - - 1028.1 1027.4 -
02/09:00am 11.5 - 5.8 68 2.7 - - - - - 1028.1 1027.4 0.0
02/08:30am 9.6 - 5.8 77 1.8 - - - - - 1027.9 1027.2 -
02/08:00am 7.1 - 4.9 86 1.0 - - - - - 1027.7 - -
02/07:30am 6.5 - 5.1 91 0.6 - - - - - 1027.3 1026.6 -
02/07:00am 6.3 - 4.8 90 0.7 - - - - - 1027.0 - -
02/06:30am 6.5 - 4.8 89 0.8 - - - - - 1026.8 1026.1 -
02/06:00am 6.5 - 4.7 88 0.8 - - - - - 1026.6 1025.9 -
02/05:30am 6.8 - 4.8 87 0.9 - - - - - 1026.5 1025.8 -
02/05:00am 7.4 - 5.0 85 1.1 - - - - - 1026.3 - -
02/04:30am 7.7 - 5.2 84 1.1 - - - - - 1026.4 1025.7 -
02/04:00am 7.2 - 4.3 82 1.3 - - - - - 1026.4 - -
02/03:30am 8.7 - 4.9 77 1.7 - - - - - 1026.6 1025.9 -
02/03:00am 10.0 - 6.0 76 1.9 - - - - - 1026.7 1026.0 0.0
02/02:30am 9.1 - 5.3 77 1.8 - - - - - 1026.9 1026.2 -
02/02:00am 9.8 - 5.8 76 1.9 - - - - - 1026.9 - -
02/01:30am 10.7 - 6.3 74 2.1 - - - - - 1026.9 1026.2 -
02/01:00am 10.5 - 6.1 74 2.1 - - - - - 1026.8 - -
02/12:30am 11.3 - 6.6 73 2.3 - - - - - 1026.7 1026.0 -
02/12:00am 10.4 - 5.6 72 2.3 - - - - - 1026.7 1026.0 -
 
Date/Time
CST
Temp
°C
App
Temp
°C
Dew
Point
Rel
Hum
%
Delta-T
°C
Wind Press
QNH
hPa
Press
MSL
hPa
Rain
since 9 am
mm
Dir
 
Spd
km/h
Gust
km/h
Spd
kts
Gust
kts
01/11:30pm 11.8 - 6.3 69 2.7 - - - - - 1026.7 1026.0 -
01/11:00pm 11.5 - 5.8 68 2.7 - - - - - 1026.9 - -
01/10:30pm 11.3 - 5.6 68 2.7 - - - - - 1026.9 1026.2 -
01/10:00pm 11.8 - 4.5 61 3.4 - - - - - 1026.7 - -
01/09:30pm 13.4 - 5.3 58 3.9 - - - - - 1026.4 1025.7 -
01/09:00pm 14.9 - 6.2 56 4.3 - - - - - 1026.1 1025.4 0.0
01/08:30pm 13.4 - 4.6 55 4.2 - - - - - 1025.9 1025.1 -
01/08:00pm 15.0 - 5.2 52 4.8 - - - - - 1025.7 - -
01/07:30pm 15.1 - 5.0 51 4.9 - - - - - 1025.2 1024.5 -
01/07:00pm 15.5 - 4.3 47 5.4 - - - - - 1024.9 - -
01/06:30pm 16.9 - 3.9 42 6.2 - - - - - 1024.7 1024.0 -
01/06:00pm 19.2 - 4.2 37 7.3 - - - - - 1024.5 1023.8 -
01/05:30pm 21.0 - 5.0 35 8.1 - - - - - 1024.3 1023.5 -
01/05:00pm 21.3 - 5.2 35 8.2 - - - - - 1024.3 - -
01/04:30pm 21.7 - 5.6 35 8.2 - - - - - 1024.1 1023.3 -
01/04:00pm 21.7 - 5.6 35 8.3 - - - - - 1024.2 - -
01/03:30pm 21.9 - 5.8 35 8.3 - - - - - 1024.4 1023.7 -
01/03:00pm 21.6 - 6.3 37 7.9 - - - - - 1024.6 1023.9 0.0
01/02:30pm 21.4 - 5.3 35 8.2 - - - - - 1024.9 1024.2 -
01/02:00pm 21.5 - 7.7 41 7.4 - - - - - 1025.2 - -
01/01:30pm 21.4 - 7.6 41 7.3 - - - - - 1025.9 1025.1 -
01/01:00pm 20.9 - 7.9 43 6.9 - - - - - 1026.6 - -
01/12:30pm 20.4 - 8.1 45 6.5 - - - - - 1027.3 1026.6 -
01/12:00pm 19.2 - 8.2 49 5.8 - - - - - 1027.9 1027.2 -
01/11:30am 17.9 - 8.2 53 5.1 - - - - - 1028.2 1027.5 -
01/11:00am 17.1 - 8.3 56 4.6 - - - - - 1028.6 - -
01/10:30am 16.6 - 8.6 59 4.2 - - - - - 1028.8 1028.1 -
01/10:00am 15.1 - 8.1 63 3.6 - - - - - 1028.8 - -
01/09:30am 14.1 - 8.3 68 3.0 - - - - - 1028.6 1027.9 -
01/09:00am 12.7 - 8.4 75 2.2 - - - - - 1028.3 1027.5 0.0
01/08:30am 10.6 - 8.7 88 1.0 - - - - - 1028.2 1027.4 -
01/08:00am 7.7 - 6.5 92 0.6 - - - - - 1027.7 - -
01/07:30am 6.7 - 6.1 96 0.3 - - - - - 1027.3 1026.6 -
01/07:00am 6.0 - 5.1 94 0.4 - - - - - 1027.1 - -
01/06:30am 5.3 - 4.3 93 0.4 - - - - - 1026.8 1026.0 -
01/06:00am 5.0 - 3.5 90 0.6 - - - - - 1026.8 1026.0 -
01/05:30am 6.1 - 5.4 95 0.3 - - - - - 1026.6 1025.8 -
01/05:00am 6.3 - 5.1 92 0.5 - - - - - 1026.5 - -
01/04:30am 6.7 - 4.7 87 0.9 - - - - - 1026.5 1025.7 -
01/04:00am 8.3 - 5.6 83 1.3 - - - - - 1026.5 - -
01/03:30am 9.2 - 7.0 86 1.1 - - - - - 1026.4 1025.6 -
01/03:00am 9.2 - 6.8 85 1.2 - - - - - 1026.6 1025.8 0.0
01/02:30am 9.9 - 7.3 84 1.3 - - - - - 1026.7 1025.9 -
01/02:00am 10.5 - 7.7 83 1.4 - - - - - 1026.8 - -
01/01:30am 10.8 - 7.9 82 1.4 - - - - - 1026.7 1025.9 -
01/01:00am 11.6 - 8.3 80 1.7 - - - - - 1026.6 - -
01/12:30am 12.3 - 8.6 78 1.9 - - - - - 1026.5 1025.7 -
01/12:00am 12.5 - 8.8 78 1.9 - - - - - 1026.4 1025.6 -
 
Date/Time
CST
Temp
°C
App
Temp
°C
Dew
Point
Rel
Hum
%
Delta-T
°C
Wind Press
QNH
hPa
Press
MSL
hPa
Rain
since 9 am
mm
Dir
 
Spd
km/h
Gust
km/h
Spd
kts
Gust
kts
30/11:30pm 13.0 - 8.9 76 2.1 - - - - - 1026.7 1025.9 -
30/11:00pm 13.1 - 9.0 76 2.1 - - - - - 1026.7 - -
30/10:30pm 14.0 - 9.2 73 2.5 - - - - - 1026.7 1025.9 -
30/10:00pm 14.2 - 9.2 72 2.6 - - - - - 1026.7 - -
30/09:30pm 14.9 - 9.3 69 2.9 - - - - - 1026.5 1025.7 -

Other Formats:

Comma delimited format used in spreadsheet applications
http://www.bom.gov.au/fwo/IDD60801/IDD60801.94328.axf

JavaScript Object Notation format (JSON) in row-major order
http://www.bom.gov.au/fwo/IDD60801/IDD60801.94328.json